createdAt,value
2019-05-18T00:01:26.102Z,11.40
2019-05-18T00:03:54.576Z,11.40
2019-05-18T00:06:23.058Z,11.40
2019-05-18T00:08:51.595Z,11.40
2019-05-18T00:11:20.103Z,11.40
2019-05-18T00:13:48.567Z,11.40
2019-05-18T00:16:16.999Z,11.30
2019-05-18T00:18:45.460Z,11.30
2019-05-18T00:21:13.938Z,11.30
2019-05-18T00:23:42.385Z,11.30
2019-05-18T00:26:10.825Z,11.30
2019-05-18T00:28:39.361Z,11.20
2019-05-18T00:31:07.918Z,11.20
2019-05-18T00:33:36.371Z,11.10
2019-05-18T00:36:05.380Z,11.10
2019-05-18T00:38:33.887Z,11.00
2019-05-18T00:41:02.558Z,11.00
2019-05-18T00:43:31.121Z,10.80
2019-05-18T00:45:59.543Z,10.80
2019-05-18T00:48:28.007Z,10.80
2019-05-18T00:50:56.532Z,10.70
2019-05-18T00:53:25.061Z,10.70
2019-05-18T00:55:53.490Z,10.60
2019-05-18T00:58:21.963Z,10.60
2019-05-18T01:00:50.460Z,10.60
2019-05-18T01:03:18.939Z,10.50
2019-05-18T01:05:47.529Z,10.50
2019-05-18T01:08:16.022Z,10.40
2019-05-18T01:10:44.552Z,10.40
2019-05-18T01:13:13.431Z,10.40
2019-05-18T01:15:41.966Z,10.40
2019-05-18T01:18:10.415Z,10.40
2019-05-18T01:20:38.925Z,10.30
2019-05-18T01:23:07.595Z,10.30
2019-05-18T01:25:36.069Z,10.30
2019-05-18T01:28:04.665Z,10.20
2019-05-18T01:30:33.199Z,10.20
2019-05-18T01:33:01.744Z,10.20
2019-05-18T01:35:30.293Z,10.20
2019-05-18T01:37:58.718Z,10.10
2019-05-18T01:40:27.188Z,10.10
2019-05-18T01:42:55.666Z,10.00
2019-05-18T01:45:24.188Z,10.00
2019-05-18T01:47:52.642Z,10.00
2019-05-18T01:50:21.172Z,10.00
2019-05-18T01:52:49.920Z,9.90
2019-05-18T01:55:18.364Z,9.90
2019-05-18T01:57:46.919Z,9.90
2019-05-18T02:00:15.803Z,9.90
2019-05-18T02:02:44.319Z,9.80
2019-05-18T02:05:13.113Z,9.90
2019-05-18T02:07:41.579Z,9.80
2019-05-18T02:10:10.745Z,9.90
2019-05-18T02:12:39.243Z,10.00
2019-05-18T02:15:09.417Z,10.00
2019-05-18T02:17:38.057Z,10.10
2019-05-18T02:20:06.727Z,10.10
2019-05-18T02:22:35.243Z,10.10
2019-05-18T02:25:06.032Z,10.10
2019-05-18T02:27:34.506Z,10.10
2019-05-18T02:30:06.475Z,10.10
2019-05-18T02:32:35.023Z,10.10
2019-05-18T02:35:05.128Z,10.10
2019-05-18T02:37:33.593Z,10.10
2019-05-18T02:40:02.009Z,10.10
2019-05-18T02:42:31.001Z,10.10
2019-05-18T02:44:59.742Z,10.00
2019-05-18T02:47:28.243Z,9.90
2019-05-18T02:49:56.661Z,9.90
2019-05-18T02:52:25.109Z,9.90
2019-05-18T02:54:53.531Z,9.90
2019-05-18T02:57:22.079Z,9.80
2019-05-18T02:59:50.472Z,9.80
2019-05-18T03:02:19.000Z,9.80
2019-05-18T03:04:47.523Z,9.70
2019-05-18T03:07:16.084Z,9.80
2019-05-18T03:09:44.652Z,9.90
2019-05-18T03:12:14.311Z,9.90
2019-05-18T03:14:42.757Z,10.00
2019-05-18T03:17:11.200Z,10.00
2019-05-18T03:19:39.736Z,10.10
2019-05-18T03:22:08.277Z,10.20
2019-05-18T03:24:36.716Z,10.20
2019-05-18T03:27:05.208Z,10.30
2019-05-18T03:29:33.673Z,10.30
2019-05-18T03:32:02.100Z,10.40
2019-05-18T03:34:30.572Z,10.40
2019-05-18T03:36:59.070Z,10.40
2019-05-18T03:39:27.653Z,10.50
2019-05-18T03:41:56.077Z,10.50
2019-05-18T03:44:24.538Z,10.50
2019-05-18T03:46:53.073Z,10.60
2019-05-18T03:49:26.725Z,10.60
2019-05-18T03:51:51.903Z,10.70
2019-05-18T03:54:20.350Z,10.70
2019-05-18T03:56:48.857Z,10.70
2019-05-18T03:59:17.304Z,10.70
2019-05-18T04:01:45.756Z,10.80
2019-05-18T04:04:18.331Z,10.80
2019-05-18T04:06:47.352Z,10.80
2019-05-18T04:09:15.806Z,10.80
2019-05-18T04:11:46.198Z,10.80
2019-05-18T04:14:14.436Z,10.80
2019-05-18T04:16:42.866Z,10.80
2019-05-18T04:19:11.306Z,10.90
2019-05-18T04:21:39.832Z,10.90
2019-05-18T04:24:08.338Z,11.00
2019-05-18T04:26:37.424Z,11.00
2019-05-18T04:29:06.032Z,11.00
2019-05-18T04:31:34.489Z,11.00
2019-05-18T04:34:03.035Z,11.00
2019-05-18T04:36:31.938Z,11.10
2019-05-18T04:39:00.434Z,11.00
2019-05-18T04:41:28.970Z,11.10
2019-05-18T04:43:57.467Z,11.10
2019-05-18T04:46:25.949Z,11.10
2019-05-18T04:48:54.443Z,11.10
2019-05-18T04:51:22.920Z,11.20
2019-05-18T04:53:51.359Z,11.20
2019-05-18T04:56:19.823Z,11.30
2019-05-18T04:58:48.246Z,11.30
2019-05-18T05:01:16.767Z,11.30
2019-05-18T05:03:45.205Z,11.30
2019-05-18T05:06:13.776Z,11.40
2019-05-18T05:08:42.188Z,11.40
2019-05-18T05:11:10.807Z,11.50
2019-05-18T05:13:39.299Z,11.60
2019-05-18T05:16:08.712Z,11.70
2019-05-18T05:18:37.237Z,11.70
2019-05-18T05:21:07.195Z,11.90
2019-05-18T05:23:35.823Z,11.90
2019-05-18T05:26:04.343Z,12.10
2019-05-18T05:28:32.823Z,12.20
2019-05-18T05:31:01.251Z,12.30
2019-05-18T05:33:29.763Z,12.40
2019-05-18T05:35:58.195Z,12.60
2019-05-18T05:38:26.646Z,12.70
2019-05-18T05:40:55.063Z,12.80
2019-05-18T05:43:23.602Z,12.90
2019-05-18T05:45:52.016Z,13.00
2019-05-18T05:48:20.475Z,13.00
2019-05-18T05:50:48.949Z,13.00
2019-05-18T05:53:17.415Z,13.10
2019-05-18T05:55:45.837Z,13.20
2019-05-18T05:58:14.294Z,13.20
2019-05-18T06:00:42.753Z,13.30
2019-05-18T06:03:11.209Z,13.40
2019-05-18T06:05:39.684Z,13.50
2019-05-18T06:08:08.112Z,13.50
2019-05-18T06:10:36.702Z,13.60
2019-05-18T06:13:05.191Z,13.70
2019-05-18T06:15:33.638Z,13.90
2019-05-18T06:18:02.067Z,14.10
2019-05-18T06:20:30.595Z,14.20
2019-05-18T06:22:59.025Z,14.20
2019-05-18T06:25:27.472Z,14.20
2019-05-18T06:27:55.910Z,14.20
2019-05-18T06:30:24.442Z,14.20
2019-05-18T06:32:52.886Z,14.30
2019-05-18T06:35:21.361Z,14.30
2019-05-18T06:40:18.001Z,14.30
2019-05-18T06:42:47.379Z,14.30
2019-05-18T06:45:16.206Z,14.40
2019-05-18T06:47:47.857Z,14.50
2019-05-18T06:50:17.844Z,14.60
2019-05-18T06:52:46.361Z,14.60
2019-05-18T06:55:15.149Z,14.70
2019-05-18T06:57:50.784Z,14.80
2019-05-18T07:00:19.371Z,15.00
2019-05-18T07:02:47.804Z,15.10
2019-05-18T07:05:16.365Z,15.30
2019-05-18T07:07:44.815Z,15.40
2019-05-18T07:10:13.659Z,15.40
2019-05-18T07:12:42.148Z,15.40
2019-05-18T07:15:11.237Z,15.40
2019-05-18T07:17:39.667Z,15.30
2019-05-18T07:20:08.862Z,15.30
2019-05-18T07:22:37.384Z,15.30
2019-05-18T07:25:09.127Z,15.50
2019-05-18T07:27:37.712Z,15.60
2019-05-18T07:30:08.051Z,15.80
2019-05-18T07:32:38.260Z,15.80
2019-05-18T07:35:07.355Z,16.00
2019-05-18T07:37:36.096Z,16.20
2019-05-18T07:40:06.962Z,16.60
2019-05-18T07:42:35.493Z,17.00
2019-05-18T07:45:06.057Z,17.50
2019-05-18T07:47:34.589Z,17.50
2019-05-18T07:50:03.160Z,17.50
2019-05-18T07:52:31.619Z,17.70
2019-05-18T07:55:00.101Z,17.50
2019-05-18T07:57:28.575Z,17.40
2019-05-18T07:59:57.009Z,17.40
2019-05-18T08:02:25.490Z,17.30
2019-05-18T08:04:53.986Z,17.30
2019-05-18T08:07:22.503Z,17.40
2019-05-18T08:09:50.960Z,17.60
2019-05-18T08:12:19.424Z,17.80
2019-05-18T08:14:47.879Z,17.80
2019-05-18T08:17:16.345Z,17.80
2019-05-18T08:19:44.786Z,18.50
2019-05-18T08:22:13.356Z,18.50
2019-05-18T08:24:41.867Z,18.50
2019-05-18T08:27:10.515Z,18.90
2019-05-18T08:29:39.033Z,19.10
2019-05-18T08:32:07.484Z,19.50
2019-05-18T08:34:35.967Z,19.80
2019-05-18T08:37:04.573Z,19.80
2019-05-18T08:39:33.015Z,20.00
2019-05-18T08:42:01.445Z,20.30
2019-05-18T08:44:29.899Z,20.40
2019-05-18T08:46:58.373Z,20.50
2019-05-18T08:49:26.866Z,20.70
2019-05-18T08:52:07.534Z,20.60
2019-05-18T08:54:25.500Z,20.30
2019-05-18T08:56:54.449Z,20.10
2019-05-18T08:59:22.962Z,20.00
2019-05-18T09:01:51.394Z,20.20
2019-05-18T09:04:19.861Z,20.40
2019-05-18T09:06:48.294Z,20.40
2019-05-18T09:09:16.758Z,20.40
2019-05-18T09:11:45.194Z,20.20
2019-05-18T09:14:13.659Z,19.80
2019-05-18T09:16:42.159Z,19.80
2019-05-18T09:19:10.653Z,19.50
2019-05-18T09:21:39.134Z,19.50
2019-05-18T09:24:07.566Z,19.60
2019-05-18T09:26:36.031Z,19.80
2019-05-18T09:29:04.625Z,20.20
2019-05-18T09:31:33.119Z,20.60
2019-05-18T09:34:01.540Z,21.10
2019-05-18T09:36:30.081Z,21.40
2019-05-18T09:38:58.508Z,22.10
2019-05-18T09:41:26.947Z,21.80
2019-05-18T09:43:55.384Z,22.00
2019-05-18T09:46:23.859Z,21.40
2019-05-18T09:48:52.309Z,21.40
2019-05-18T09:51:20.776Z,21.50
2019-05-18T09:53:51.466Z,22.10
2019-05-18T09:56:19.419Z,22.30
2019-05-18T09:58:47.880Z,22.30
2019-05-18T10:01:16.503Z,21.70
2019-05-18T10:03:44.936Z,21.70
2019-05-18T10:06:13.419Z,22.10
2019-05-18T10:08:42.104Z,21.90
2019-05-18T10:11:10.549Z,21.60
2019-05-18T10:13:39.000Z,22.10
2019-05-18T10:16:07.511Z,22.30
2019-05-18T10:18:35.973Z,22.20
2019-05-18T10:21:04.563Z,21.90
2019-05-18T10:23:33.044Z,22.00
2019-05-18T10:26:01.487Z,22.30
2019-05-18T10:28:30.003Z,22.70
2019-05-18T10:30:58.432Z,22.60
2019-05-18T10:33:26.884Z,22.80
2019-05-18T10:35:55.397Z,22.80
2019-05-18T10:38:23.871Z,22.80
2019-05-18T10:40:52.379Z,22.70
2019-05-18T10:43:20.864Z,22.50
2019-05-18T10:45:49.352Z,22.40
2019-05-18T10:48:17.904Z,22.40
2019-05-18T10:50:46.319Z,22.40
2019-05-18T10:53:27.733Z,21.50
2019-05-18T10:55:45.480Z,21.40
2019-05-18T10:58:13.962Z,21.50
2019-05-18T11:00:42.622Z,21.50
2019-05-18T11:03:11.079Z,21.60
2019-05-18T11:05:39.503Z,21.60
2019-05-18T11:08:07.959Z,21.80
2019-05-18T11:10:36.412Z,21.90
2019-05-18T11:13:04.943Z,22.00
2019-05-18T11:15:33.367Z,21.80
2019-05-18T11:18:01.828Z,21.80
2019-05-18T11:20:30.254Z,21.90
2019-05-18T11:22:58.751Z,22.00
2019-05-18T11:25:27.255Z,22.10
2019-05-18T11:27:56.603Z,22.00
2019-05-18T11:30:25.192Z,21.90
2019-05-18T11:32:53.618Z,22.00
2019-05-18T11:35:22.507Z,22.40
2019-05-18T11:37:51.024Z,22.00
2019-05-18T11:40:19.707Z,21.90
2019-05-18T11:42:48.212Z,22.00
2019-05-18T11:45:18.095Z,22.10
2019-05-18T11:47:46.536Z,22.10
2019-05-18T11:50:16.849Z,21.80
2019-05-18T11:52:45.441Z,21.30
2019-05-18T11:55:14.315Z,21.10
2019-05-18T11:57:42.847Z,21.20
2019-05-18T12:00:14.162Z,20.80
2019-05-18T12:02:42.664Z,20.40
2019-05-18T12:05:11.477Z,20.20
2019-05-18T12:07:39.896Z,20.10
2019-05-18T12:10:10.175Z,20.10
2019-05-18T12:12:38.740Z,20.50
2019-05-18T12:15:09.548Z,20.90
2019-05-18T12:17:38.055Z,21.30
2019-05-18T12:20:07.599Z,21.30
2019-05-18T12:22:36.165Z,21.50
2019-05-18T12:25:09.259Z,21.50
2019-05-18T12:27:37.854Z,21.40
2019-05-18T12:30:10.209Z,21.70
2019-05-18T12:32:39.004Z,21.90
2019-05-18T12:35:08.875Z,21.60
2019-05-18T12:37:37.517Z,21.70
2019-05-18T12:40:09.217Z,21.70
2019-05-18T12:42:38.036Z,21.80
2019-05-18T12:45:07.939Z,21.90
2019-05-18T12:47:36.552Z,22.10
2019-05-18T12:50:06.714Z,22.30
2019-05-18T12:52:35.173Z,22.40
2019-05-18T12:55:05.479Z,22.80
2019-05-18T12:57:34.202Z,22.50
2019-05-18T13:00:02.764Z,22.30
2019-05-18T13:02:31.235Z,22.70
2019-05-18T13:04:59.716Z,23.00
2019-05-18T13:07:28.187Z,23.20
2019-05-18T13:09:56.615Z,23.40
2019-05-18T13:12:25.174Z,23.30
2019-05-18T13:14:53.599Z,23.20
2019-05-18T13:17:22.083Z,23.40
2019-05-18T13:19:50.579Z,23.00
2019-05-18T13:22:19.105Z,22.90
2019-05-18T13:24:47.598Z,22.60
2019-05-18T13:27:16.127Z,22.70
2019-05-18T13:29:44.657Z,22.80
2019-05-18T13:32:13.123Z,22.90
2019-05-18T13:34:41.548Z,23.10
2019-05-18T13:37:10.085Z,23.20
2019-05-18T13:39:38.598Z,23.40
2019-05-18T13:42:07.076Z,23.20
2019-05-18T13:44:38.098Z,22.90
2019-05-18T13:47:05.848Z,22.80
2019-05-18T13:49:34.363Z,22.70
2019-05-18T13:52:02.911Z,23.00
2019-05-18T13:54:31.342Z,23.10
2019-05-18T13:56:59.799Z,23.20
2019-05-18T13:59:28.464Z,23.60
2019-05-18T14:01:58.427Z,23.80
2019-05-18T14:04:26.961Z,24.10
2019-05-18T14:06:55.792Z,24.00
2019-05-18T14:09:24.434Z,24.10
2019-05-18T14:11:53.002Z,24.30
2019-05-18T14:14:21.472Z,24.20
2019-05-18T14:16:49.904Z,24.10
2019-05-18T14:19:18.546Z,24.30
2019-05-18T14:21:47.033Z,24.30
2019-05-18T14:24:15.516Z,24.50
2019-05-18T14:26:44.041Z,24.60
2019-05-18T14:29:12.486Z,24.30
2019-05-18T14:31:40.978Z,24.50
2019-05-18T14:34:09.509Z,24.80
2019-05-18T14:36:37.926Z,24.80
2019-05-18T14:39:08.645Z,24.90
2019-05-18T14:41:37.078Z,25.10
2019-05-18T14:44:05.620Z,24.90
2019-05-18T14:46:34.073Z,24.50
2019-05-18T14:49:02.593Z,24.90
2019-05-18T14:51:31.060Z,25.00
2019-05-18T14:53:59.591Z,24.60
2019-05-18T14:56:28.042Z,24.50
2019-05-18T14:58:56.501Z,24.30
2019-05-18T15:01:25.008Z,24.00
2019-05-18T15:03:53.547Z,23.90
2019-05-18T15:06:22.068Z,23.70
2019-05-18T15:08:50.539Z,23.80
2019-05-18T15:11:18.979Z,23.70
2019-05-18T15:13:47.556Z,23.40
2019-05-18T15:16:16.156Z,23.20
2019-05-18T15:18:44.650Z,23.10
2019-05-18T15:21:13.263Z,22.90
2019-05-18T15:23:41.782Z,22.70
2019-05-18T15:26:10.371Z,22.50
2019-05-18T15:28:38.794Z,22.40
2019-05-18T15:31:07.366Z,22.40
2019-05-18T15:33:35.870Z,22.40
2019-05-18T15:36:04.487Z,22.20
2019-05-18T15:38:32.997Z,22.20
2019-05-18T15:41:01.433Z,22.30
2019-05-18T15:43:29.911Z,22.30
2019-05-18T15:45:58.354Z,22.30
2019-05-18T15:48:26.840Z,22.40
2019-05-18T15:50:55.323Z,22.20
2019-05-18T15:53:23.768Z,22.30
2019-05-18T15:56:04.737Z,22.20
2019-05-18T15:58:22.526Z,22.20
2019-05-18T16:00:50.973Z,22.00
2019-05-18T16:03:19.562Z,21.80
2019-05-18T16:05:48.148Z,21.90
2019-05-18T16:08:16.595Z,21.80
2019-05-18T16:10:45.189Z,21.40
2019-05-18T16:13:13.719Z,21.30
2019-05-18T16:15:42.371Z,21.30
2019-05-18T16:18:10.847Z,21.30
2019-05-18T16:20:39.445Z,21.30
2019-05-18T16:23:08.029Z,21.30
2019-05-18T16:25:36.459Z,21.40
2019-05-18T16:28:04.982Z,21.40
2019-05-18T16:30:33.446Z,21.40
2019-05-18T16:33:02.071Z,21.50
2019-05-18T16:35:30.677Z,21.50
2019-05-18T16:37:59.197Z,21.30
2019-05-18T16:40:27.629Z,21.20
2019-05-18T16:42:56.095Z,21.20
2019-05-18T16:45:24.578Z,21.20
2019-05-18T16:47:53.071Z,21.00
2019-05-18T16:50:21.724Z,21.00
2019-05-18T16:52:50.456Z,20.80
2019-05-18T16:55:19.289Z,20.70
2019-05-18T16:57:47.860Z,20.80
2019-05-18T17:00:17.040Z,20.80
2019-05-18T17:02:45.548Z,20.60
2019-05-18T17:05:15.944Z,20.80
2019-05-18T17:07:44.476Z,20.80
2019-05-18T17:10:13.814Z,20.80
2019-05-18T17:12:42.367Z,20.80
2019-05-18T17:15:10.997Z,20.80
2019-05-18T17:17:39.447Z,20.90
2019-05-18T17:20:08.660Z,21.00
2019-05-18T17:22:37.297Z,21.00
2019-05-18T17:25:06.597Z,20.90
2019-05-18T17:27:35.111Z,20.90
2019-05-18T17:30:05.617Z,21.00
2019-05-18T17:32:34.055Z,21.00
2019-05-18T17:35:02.771Z,21.00
2019-05-18T17:37:31.220Z,21.00
2019-05-18T17:39:59.686Z,21.00
2019-05-18T17:42:28.128Z,21.00
2019-05-18T17:44:56.589Z,20.80
2019-05-18T17:47:25.019Z,20.80
2019-05-18T17:49:53.513Z,20.60
2019-05-18T17:52:22.009Z,20.60
2019-05-18T17:54:50.706Z,20.50
2019-05-18T17:57:19.191Z,20.30
2019-05-18T17:59:49.528Z,20.30
2019-05-18T18:02:17.855Z,20.20
2019-05-18T18:04:46.371Z,20.10
2019-05-18T18:07:14.803Z,20.00
2019-05-18T18:09:43.288Z,20.00
2019-05-18T18:12:11.730Z,19.80
2019-05-18T18:14:40.206Z,19.80
2019-05-18T18:17:08.741Z,19.70
2019-05-18T18:19:37.204Z,19.60
2019-05-18T18:22:05.828Z,19.70
2019-05-18T18:24:34.406Z,19.80
2019-05-18T18:27:03.026Z,19.70
2019-05-18T18:29:31.491Z,19.70
2019-05-18T18:31:59.968Z,19.70
2019-05-18T18:34:28.549Z,19.70
2019-05-18T18:36:57.002Z,19.60
2019-05-18T18:39:25.508Z,19.50
2019-05-18T18:41:53.966Z,19.40
2019-05-18T18:44:22.392Z,19.40
2019-05-18T18:46:50.889Z,19.30
2019-05-18T18:49:19.376Z,19.20
2019-05-18T18:51:47.864Z,19.20
2019-05-18T18:54:16.292Z,19.10
2019-05-18T18:56:44.757Z,19.00
2019-05-18T18:59:13.271Z,18.90
2019-05-18T19:01:41.725Z,18.80
2019-05-18T19:04:10.171Z,18.80
2019-05-18T19:06:38.756Z,18.70
2019-05-18T19:09:07.992Z,18.70
2019-05-18T19:11:36.575Z,18.70
2019-05-18T19:14:05.749Z,18.60
2019-05-18T19:16:34.425Z,18.60
2019-05-18T19:19:02.900Z,18.60
2019-05-18T19:21:31.368Z,18.50
2019-05-18T19:23:59.875Z,18.50
2019-05-18T19:26:28.400Z,18.50
2019-05-18T19:28:56.876Z,18.50
2019-05-18T19:31:25.441Z,18.40
2019-05-18T19:33:53.895Z,18.40
2019-05-18T19:36:22.348Z,18.30
2019-05-18T19:38:50.804Z,18.30
2019-05-18T19:41:19.242Z,18.30
2019-05-18T19:43:47.718Z,18.30
2019-05-18T19:46:16.148Z,18.30
2019-05-18T19:48:44.596Z,18.30
2019-05-18T19:51:15.950Z,18.30
2019-05-18T19:53:43.264Z,18.30
2019-05-18T19:56:11.739Z,18.30
2019-05-18T19:58:40.233Z,18.30
2019-05-18T20:01:08.672Z,18.30
2019-05-18T20:03:37.167Z,18.30
2019-05-18T20:06:05.670Z,18.20
2019-05-18T20:08:34.160Z,18.30
2019-05-18T20:11:02.642Z,18.20
2019-05-18T20:13:31.123Z,18.10
2019-05-18T20:15:59.578Z,18.10
2019-05-18T20:18:28.036Z,18.00
2019-05-18T20:20:56.475Z,17.80
2019-05-18T20:23:25.079Z,17.60
2019-05-18T20:25:53.529Z,17.40
2019-05-18T20:28:24.072Z,17.20
2019-05-18T20:30:52.154Z,17.10
2019-05-18T20:33:20.744Z,17.00
2019-05-18T20:35:49.213Z,16.90
2019-05-18T20:38:17.762Z,16.80
2019-05-18T20:40:46.182Z,16.80
2019-05-18T20:43:14.904Z,16.70
2019-05-18T20:45:43.351Z,16.70
2019-05-18T20:48:11.825Z,16.60
2019-05-18T20:50:40.364Z,16.60
2019-05-18T20:53:08.998Z,16.50
2019-05-18T20:55:37.452Z,16.20
2019-05-18T20:58:05.989Z,15.90
2019-05-18T21:00:34.743Z,15.70
2019-05-18T21:03:03.196Z,15.50
2019-05-18T21:05:31.655Z,15.40
2019-05-18T21:08:00.102Z,15.30
2019-05-18T21:10:28.679Z,15.30
2019-05-18T21:12:57.304Z,15.20
2019-05-18T21:15:25.848Z,15.20
2019-05-18T21:17:54.367Z,15.20
2019-05-18T21:20:23.082Z,15.10
2019-05-18T21:22:51.564Z,15.10
2019-05-18T21:25:20.024Z,15.20
2019-05-18T21:27:48.507Z,15.10
2019-05-18T21:30:17.334Z,15.10
2019-05-18T21:32:45.790Z,15.10
2019-05-18T21:35:14.382Z,15.10
2019-05-18T21:37:42.844Z,15.10
2019-05-18T21:40:11.620Z,15.00
2019-05-18T21:42:40.194Z,15.00
2019-05-18T21:45:09.051Z,15.00
2019-05-18T21:47:37.503Z,15.00
2019-05-18T21:50:07.409Z,15.00
2019-05-18T21:52:35.959Z,15.00
2019-05-18T21:55:06.252Z,14.90
2019-05-18T21:57:34.731Z,14.90
2019-05-18T22:00:03.540Z,14.90
2019-05-18T22:02:32.267Z,14.90
2019-05-18T22:05:01.270Z,14.90
2019-05-18T22:07:29.872Z,14.80
2019-05-18T22:09:58.319Z,14.90
2019-05-18T22:12:26.797Z,14.90
2019-05-18T22:14:55.241Z,14.90
2019-05-18T22:17:23.704Z,15.00
2019-05-18T22:19:53.674Z,15.00
2019-05-18T22:22:22.137Z,15.00
2019-05-18T22:24:50.563Z,15.00
2019-05-18T22:27:19.204Z,15.00
2019-05-18T22:29:47.691Z,15.00
2019-05-18T22:32:16.169Z,15.00
2019-05-18T22:34:44.604Z,14.90
2019-05-18T22:37:13.062Z,14.90
2019-05-18T22:39:41.494Z,14.90
2019-05-18T22:42:09.988Z,14.90
2019-05-18T22:44:38.477Z,14.90
2019-05-18T22:47:06.930Z,14.90
2019-05-18T22:49:35.420Z,14.90
2019-05-18T22:52:03.937Z,14.90
2019-05-18T22:54:32.555Z,14.90
2019-05-18T22:57:01.031Z,14.90
2019-05-18T22:59:29.517Z,14.90
2019-05-18T23:01:57.941Z,14.90
2019-05-18T23:04:26.477Z,14.90
2019-05-18T23:06:54.904Z,14.80
2019-05-18T23:09:23.387Z,14.90
2019-05-18T23:11:51.816Z,14.80
2019-05-18T23:14:20.274Z,14.80
2019-05-18T23:16:48.782Z,14.80
2019-05-18T23:19:17.359Z,14.80
2019-05-18T23:21:45.838Z,14.70
2019-05-18T23:24:14.333Z,14.80
2019-05-18T23:26:42.831Z,14.70
2019-05-18T23:29:11.299Z,14.70
2019-05-18T23:31:39.745Z,14.70
2019-05-18T23:34:08.196Z,14.70
2019-05-18T23:36:36.658Z,14.70
2019-05-18T23:39:06.682Z,14.70
2019-05-18T23:41:35.340Z,14.70
2019-05-18T23:44:04.115Z,14.70
2019-05-18T23:46:32.683Z,14.60
2019-05-18T23:49:10.423Z,14.60
2019-05-18T23:51:50.639Z,14.60
2019-05-18T23:54:19.191Z,14.60
2019-05-18T23:56:47.645Z,14.50
2019-05-18T23:59:16.084Z,14.50
